Terminal Aerodrome Forecast
Issued by NWS

Home | Current Version | Previous Version | Text Only | Print | Product List | Glossary On
Versions: 1 2 3 4 5 6 7 8 9 10 11 12 13 14 15 16 17 18 19 20
000
FTAK31 PAJN 181100
TAFAWG
TAF
PAWG 181134Z 1812/1912 13006KT P6SM VCSH SCT025 OVC035
     FM181400 11013KT 6SM -RA SCT010 OVC030
     FM182000 12018G26KT 4SM -RA BR BKN020 OVC030 WS020/16035KT
     FM190300 12016G24KT 5SM -RA BR BKN020 OVC040
     FM190600 12015KT 5SM -RA BR OVC030
      AMD LTD TO CLD VIS AND WIND 1812/1815=

USA.gov is the U.S. government's official web portal to all federal, state and local government web resources and services.